createdAt,value
2022-08-14T00:01:11.500Z,8.78
2022-08-14T00:03:40.530Z,8.50
2022-08-14T00:06:25.500Z,7.95
2022-08-14T00:08:45.340Z,7.83
2022-08-14T00:11:15.094Z,7.97
2022-08-14T00:13:52.857Z,8.15
2022-08-14T00:16:41.352Z,8.20
2022-08-14T00:19:19.819Z,8.45
2022-08-14T00:21:28.381Z,7.90
2022-08-14T00:23:57.102Z,7.95
2022-08-14T00:26:29.270Z,7.90
2022-08-14T00:28:59.813Z,7.72
2022-08-14T00:31:43.972Z,8.08
2022-08-14T00:34:36.895Z,7.67
2022-08-14T00:36:49.217Z,8.08
2022-08-14T00:39:09.867Z,8.48
2022-08-14T00:41:40.412Z,8.75
2022-08-14T00:44:12.735Z,8.03
2022-08-14T00:46:45.619Z,8.15
2022-08-14T00:49:17.784Z,7.80
2022-08-14T00:51:49.940Z,8.03
2022-08-14T00:54:22.389Z,8.25
2022-08-14T00:56:54.772Z,7.90
2022-08-14T00:59:29.799Z,7.97
2022-08-14T01:02:04.561Z,8.25
2022-08-14T01:04:51.859Z,7.72
2022-08-14T01:07:09.034Z,8.10
2022-08-14T01:09:40.196Z,8.05
2022-08-14T01:12:11.827Z,8.30
2022-08-14T01:14:42.353Z,8.13
2022-08-14T01:17:13.799Z,8.10
2022-08-14T01:20:02.722Z,8.93
2022-08-14T01:22:36.643Z,7.47
2022-08-14T01:25:08.224Z,8.38
2022-08-14T01:27:53.820Z,8.10
2022-08-14T01:30:13.497Z,8.50
2022-08-14T01:32:51.283Z,8.13
2022-08-14T01:36:04.436Z,8.45
2022-08-14T01:37:56.757Z,8.60
2022-08-14T01:40:37.027Z,8.78
2022-08-14T01:42:59.468Z,8.83
2022-08-14T01:45:31.530Z,8.28
2022-08-14T01:48:03.621Z,7.95
2022-08-14T01:50:35.928Z,8.88
2022-08-14T01:53:08.089Z,8.33
2022-08-14T01:55:40.526Z,8.68
2022-08-14T01:58:20.143Z,8.83
2022-08-14T02:00:50.698Z,8.18
2022-08-14T02:03:23.363Z,8.73
2022-08-14T02:05:55.546Z,8.70
2022-08-14T02:08:35.660Z,8.40
2022-08-14T02:11:21.055Z,8.28
2022-08-14T02:14:07.510Z,8.20
2022-08-14T02:16:39.282Z,8.08
2022-08-14T02:19:13.944Z,9.88
2022-08-14T02:21:50.445Z,8.85
2022-08-14T02:24:40.129Z,8.58
2022-08-14T02:28:19.193Z,9.00
2022-08-14T02:29:56.146Z,8.65
2022-08-14T02:32:01.999Z,8.55
2022-08-14T02:34:36.321Z,8.70
2022-08-14T02:37:10.809Z,8.85
2022-08-14T02:39:44.342Z,9.08
2022-08-14T02:42:23.612Z,9.08
2022-08-14T02:44:53.871Z,8.93
2022-08-14T02:47:27.956Z,9.08
2022-08-14T02:49:59.831Z,8.13
2022-08-14T02:52:57.290Z,8.90
2022-08-14T02:55:05.641Z,8.90
2022-08-14T02:57:39.704Z,9.15
2022-08-14T03:00:12.844Z,9.13
2022-08-14T03:02:56.317Z,8.88
2022-08-14T03:05:17.705Z,8.55
2022-08-14T03:07:48.217Z,9.00
2022-08-14T03:10:25.692Z,8.68
2022-08-14T03:12:53.639Z,9.13
2022-08-14T03:15:24.514Z,9.15
2022-08-14T03:17:56.899Z,9.50
2022-08-14T03:20:30.699Z,9.45
2022-08-14T03:23:03.294Z,8.75
2022-08-14T03:25:37.647Z,10.08
2022-08-14T03:28:14.368Z,9.85
2022-08-14T03:30:42.349Z,9.65
2022-08-14T03:33:15.306Z,9.95
2022-08-14T03:36:00.341Z,9.28
2022-08-14T03:38:21.025Z,9.50
2022-08-14T03:40:53.173Z,9.68
2022-08-14T03:43:25.239Z,9.53
2022-08-14T03:45:57.297Z,9.50
2022-08-14T03:48:31.018Z,10.30
2022-08-14T03:51:01.549Z,9.10
2022-08-14T03:53:34.157Z,9.75
2022-08-14T03:56:08.056Z,9.70
2022-08-14T03:58:42.355Z,9.33
2022-08-14T04:01:15.667Z,9.80
2022-08-14T04:03:47.489Z,10.10
2022-08-14T04:06:21.191Z,10.00
2022-08-14T04:08:53.357Z,10.35
2022-08-14T04:11:25.586Z,9.85
2022-08-14T04:13:56.123Z,9.80
2022-08-14T04:16:31.696Z,10.15
2022-08-14T04:19:02.284Z,9.90
2022-08-14T04:21:39.957Z,10.30
2022-08-14T04:24:07.019Z,9.78
2022-08-14T04:26:42.836Z,9.85
2022-08-14T04:29:15.336Z,10.32
2022-08-14T04:32:59.322Z,9.80
2022-08-14T04:34:20.562Z,9.70
2022-08-14T04:37:07.889Z,10.20
2022-08-14T04:39:57.356Z,9.75
2022-08-14T04:42:46.801Z,9.60
2022-08-14T04:45:18.142Z,9.88
2022-08-14T04:48:06.300Z,9.30
2022-08-14T04:50:44.697Z,9.18
2022-08-14T04:53:16.521Z,10.53
2022-08-14T04:55:51.516Z,10.08
2022-08-14T04:58:32.150Z,9.63
2022-08-14T05:00:59.763Z,9.83
2022-08-14T05:03:33.422Z,9.70
2022-08-14T05:06:07.038Z,10.63
2022-08-14T05:08:57.264Z,10.25
2022-08-14T05:11:15.366Z,9.78
2022-08-14T05:14:33.142Z,10.13
2022-08-14T05:16:18.640Z,9.83
2022-08-14T05:19:18.145Z,9.68
2022-08-14T05:21:56.892Z,9.40
2022-08-14T05:23:54.708Z,9.28
2022-08-14T05:26:26.048Z,8.88
2022-08-14T05:28:56.527Z,9.40
2022-08-14T05:31:39.506Z,8.95
2022-08-14T05:33:59.078Z,8.58
2022-08-14T05:36:30.115Z,8.55
2022-08-14T05:39:01.115Z,9.30
2022-08-14T05:41:53.364Z,8.65
2022-08-14T05:44:06.710Z,9.15
2022-08-14T05:46:37.147Z,8.53
2022-08-14T05:49:08.341Z,8.60
2022-08-14T05:51:41.082Z,8.35
2022-08-14T05:54:20.649Z,8.73
2022-08-14T05:56:45.099Z,8.28
2022-08-14T05:59:16.761Z,7.62
2022-08-14T06:01:47.353Z,8.25
2022-08-14T06:04:19.488Z,7.80
2022-08-14T06:06:50.001Z,9.25
2022-08-14T06:09:20.505Z,8.68
2022-08-14T06:11:50.955Z,7.62
2022-08-14T06:14:23.823Z,9.50
2022-08-14T06:16:55.719Z,8.45
2022-08-14T06:19:26.299Z,8.50
2022-08-14T06:21:59.043Z,8.40
2022-08-14T06:24:30.641Z,9.25
2022-08-14T06:27:03.914Z,9.53
2022-08-14T06:29:35.422Z,8.90
2022-08-14T06:32:36.497Z,8.85
2022-08-14T06:35:04.521Z,9.13
2022-08-14T06:37:11.616Z,8.80
2022-08-14T06:39:42.038Z,8.98
2022-08-14T06:42:31.277Z,9.25
2022-08-14T06:44:46.264Z,9.80
2022-08-14T06:47:21.504Z,9.55
2022-08-14T06:49:57.743Z,9.90
2022-08-14T06:52:26.189Z,9.90
2022-08-14T06:54:59.518Z,10.13
2022-08-14T06:57:42.172Z,10.30
2022-08-14T07:00:26.508Z,10.08
2022-08-14T07:03:09.301Z,9.80
2022-08-14T07:05:58.224Z,10.05
2022-08-14T07:08:29.720Z,9.60
2022-08-14T07:11:04.468Z,9.90
2022-08-14T07:13:36.137Z,10.32
2022-08-14T07:16:07.001Z,9.90
2022-08-14T07:18:40.689Z,9.53
2022-08-14T07:21:11.262Z,9.48
2022-08-14T07:23:44.225Z,10.05
2022-08-14T07:26:14.164Z,10.00
2022-08-14T07:28:45.876Z,9.80
2022-08-14T07:31:16.529Z,10.38
2022-08-14T07:33:50.135Z,9.98
2022-08-14T07:36:26.957Z,9.38
2022-08-14T07:38:54.931Z,9.38
2022-08-14T07:41:33.539Z,9.63
2022-08-14T07:44:28.574Z,9.00
2022-08-14T07:46:34.819Z,9.30
2022-08-14T07:49:06.796Z,9.15
2022-08-14T07:51:39.547Z,9.18
2022-08-14T07:54:11.770Z,8.88
2022-08-14T07:56:47.993Z,9.33
2022-08-14T07:59:16.813Z,8.93
2022-08-14T08:01:51.675Z,8.45
2022-08-14T08:04:27.849Z,9.13
2022-08-14T08:06:58.522Z,8.55
2022-08-14T08:09:32.985Z,8.48
2022-08-14T08:12:09.458Z,8.85
2022-08-14T08:14:56.506Z,8.48
2022-08-14T08:17:15.952Z,8.53
2022-08-14T08:19:48.755Z,8.45
2022-08-14T08:22:21.939Z,8.90
2022-08-14T08:24:52.869Z,8.73
2022-08-14T08:27:26.028Z,8.50
2022-08-14T08:30:10.301Z,8.78
2022-08-14T08:32:43.429Z,9.18
2022-08-14T08:35:22.406Z,8.85
2022-08-14T08:38:01.635Z,8.83
2022-08-14T08:40:31.339Z,8.15
2022-08-14T08:43:03.330Z,8.98
2022-08-14T08:45:35.800Z,8.58
2022-08-14T08:48:18.168Z,8.43
2022-08-14T08:53:11.772Z,8.03
2022-08-14T08:55:45.215Z,8.65
2022-08-14T08:58:25.301Z,8.43
2022-08-14T09:00:55.219Z,8.65
2022-08-14T09:03:28.975Z,8.98
2022-08-14T09:06:59.582Z,7.90
2022-08-14T09:08:38.804Z,7.90
2022-08-14T09:11:19.110Z,8.23
2022-08-14T09:13:48.113Z,8.20
2022-08-14T09:16:25.925Z,7.85
2022-08-14T09:18:57.057Z,8.28
2022-08-14T09:21:31.342Z,7.90
2022-08-14T09:24:29.537Z,7.90
2022-08-14T09:26:34.693Z,7.65
2022-08-14T09:29:06.836Z,8.13
2022-08-14T09:31:43.188Z,6.95
2022-08-14T09:34:58.390Z,7.87
2022-08-14T09:37:26.622Z,7.90
2022-08-14T09:40:10.781Z,8.00
2022-08-14T09:42:55.571Z,7.70
2022-08-14T09:45:39.964Z,7.53
2022-08-14T09:48:30.211Z,7.78
2022-08-14T09:50:56.728Z,7.17
2022-08-14T09:54:18.470Z,7.37
2022-08-14T09:56:24.365Z,6.90
2022-08-14T09:58:50.627Z,7.30
2022-08-14T10:01:24.968Z,7.45
2022-08-14T10:03:59.700Z,7.20
2022-08-14T10:06:33.123Z,6.92
2022-08-14T10:09:06.585Z,6.20
2022-08-14T10:11:43.346Z,6.10
2022-08-14T10:14:34.775Z,6.40
2022-08-14T10:16:54.817Z,6.55
2022-08-14T10:19:29.019Z,6.17
2022-08-14T10:23:15.124Z,5.87
2022-08-14T10:24:45.760Z,6.08
2022-08-14T10:27:27.014Z,5.70
2022-08-14T10:30:04.386Z,5.72
2022-08-14T10:32:42.053Z,5.42
2022-08-14T10:35:13.766Z,5.62
2022-08-14T10:37:48.234Z,5.33
2022-08-14T10:40:37.696Z,5.78
2022-08-14T10:43:04.889Z,5.37
2022-08-14T10:45:42.173Z,5.80
2022-08-14T10:48:24.343Z,4.95
2022-08-14T10:50:52.802Z,5.10
2022-08-14T10:53:37.155Z,5.60
2022-08-14T10:56:21.848Z,6.03
2022-08-14T10:58:47.945Z,5.40
2022-08-14T11:01:22.474Z,5.50
2022-08-14T11:03:56.903Z,5.70
2022-08-14T11:06:25.514Z,5.62
2022-08-14T11:08:58.478Z,5.50
2022-08-14T11:11:35.758Z,5.10
2022-08-14T11:14:01.486Z,5.47
2022-08-14T11:16:36.026Z,5.40
2022-08-14T11:19:10.750Z,5.58
2022-08-14T11:21:45.864Z,5.60
2022-08-14T11:24:53.971Z,5.83
2022-08-14T11:26:52.754Z,6.40
2022-08-14T11:29:26.868Z,5.67
2022-08-14T11:32:00.321Z,5.80
2022-08-14T11:34:32.455Z,5.97
2022-08-14T11:37:23.654Z,5.80
2022-08-14T11:39:47.103Z,7.42
2022-08-14T11:42:57.912Z,5.87
2022-08-14T11:45:04.311Z,5.87
2022-08-14T11:47:43.924Z,5.85
2022-08-14T11:50:33.567Z,6.00
2022-08-14T11:52:57.302Z,6.25
2022-08-14T11:55:33.721Z,5.67
2022-08-14T11:58:09.446Z,6.00
2022-08-14T12:00:58.789Z,5.78
2022-08-14T12:03:52.064Z,5.78
2022-08-14T12:06:29.310Z,5.75
2022-08-14T12:08:55.406Z,5.78
2022-08-14T12:11:26.493Z,5.72
2022-08-14T12:13:58.684Z,6.15
2022-08-14T12:16:31.270Z,5.65
2022-08-14T12:19:01.831Z,6.30
2022-08-14T12:21:33.912Z,5.80
2022-08-14T12:24:08.809Z,6.12
2022-08-14T12:26:41.370Z,6.12
2022-08-14T12:29:14.391Z,5.33
2022-08-14T12:31:47.101Z,6.12
2022-08-14T12:34:20.481Z,5.60
2022-08-14T12:36:50.454Z,5.92
2022-08-14T12:39:24.469Z,5.55
2022-08-14T12:41:58.876Z,6.33
2022-08-14T12:44:32.149Z,6.10
2022-08-14T12:47:13.515Z,6.47
2022-08-14T12:49:53.550Z,6.30
2022-08-14T12:52:43.034Z,6.40
2022-08-14T12:55:10.421Z,6.40
2022-08-14T12:57:43.530Z,6.42
2022-08-14T13:00:23.154Z,6.30
2022-08-14T13:02:55.896Z,5.85
2022-08-14T13:05:31.276Z,6.10
2022-08-14T13:08:04.819Z,6.40
2022-08-14T13:10:51.480Z,5.90
2022-08-14T13:13:15.082Z,6.08
2022-08-14T13:15:48.457Z,5.80
2022-08-14T13:18:22.945Z,5.62
2022-08-14T13:21:00.959Z,6.03
2022-08-14T13:23:37.540Z,6.47
2022-08-14T13:26:08.967Z,6.42
2022-08-14T13:29:02.353Z,5.87
2022-08-14T13:31:17.366Z,5.95
2022-08-14T13:33:47.983Z,6.10
2022-08-14T13:36:24.447Z,5.80
2022-08-14T13:38:52.141Z,5.90
2022-08-14T13:41:31.932Z,5.97
2022-08-14T13:43:59.761Z,6.42
2022-08-14T13:46:29.204Z,5.83
2022-08-14T13:49:00.884Z,6.15
2022-08-14T13:51:35.518Z,5.87
2022-08-14T13:54:10.498Z,6.37
2022-08-14T13:56:42.291Z,5.70
2022-08-14T13:59:20.471Z,5.33
2022-08-14T14:01:51.708Z,5.80
2022-08-14T14:04:23.332Z,5.80
2022-08-14T14:06:56.598Z,5.90
2022-08-14T14:09:32.509Z,5.45
2022-08-14T14:12:04.026Z,5.70
2022-08-14T14:14:50.806Z,5.30
2022-08-14T14:17:08.904Z,5.00
2022-08-14T14:19:46.219Z,5.55
2022-08-14T14:22:36.097Z,5.37
2022-08-14T14:24:50.383Z,5.70
2022-08-14T14:27:40.365Z,5.12
2022-08-14T14:29:58.492Z,5.58
2022-08-14T14:32:33.402Z,5.45
2022-08-14T14:35:10.801Z,5.30
2022-08-14T14:37:43.506Z,5.55
2022-08-14T14:40:54.069Z,5.17
2022-08-14T14:42:53.206Z,5.30
2022-08-14T14:45:25.475Z,4.58
2022-08-14T14:47:59.112Z,5.03
2022-08-14T14:50:29.977Z,5.03
2022-08-14T14:53:12.817Z,5.05
2022-08-14T14:55:43.214Z,5.10
2022-08-14T14:58:08.871Z,5.15
2022-08-14T15:00:42.884Z,5.25
2022-08-14T15:03:13.772Z,5.30
2022-08-14T15:05:44.338Z,5.00
2022-08-14T15:08:17.124Z,5.12
2022-08-14T15:10:48.705Z,4.47
2022-08-14T15:13:21.557Z,4.80
2022-08-14T15:15:52.107Z,5.03
2022-08-14T15:18:37.045Z,4.95
2022-08-14T15:21:04.071Z,4.85
2022-08-14T15:23:44.060Z,4.58
2022-08-14T15:26:09.725Z,4.33
2022-08-14T15:28:42.158Z,4.50
2022-08-14T15:31:14.527Z,4.85
2022-08-14T15:34:44.143Z,5.00
2022-08-14T15:36:36.780Z,4.42
2022-08-14T15:39:09.120Z,4.50
2022-08-14T15:41:41.998Z,4.45
2022-08-14T15:44:25.173Z,4.50
2022-08-14T15:46:45.740Z,4.83
2022-08-14T15:49:19.724Z,4.80
2022-08-14T15:51:51.121Z,4.50
2022-08-14T15:54:24.032Z,4.92
2022-08-14T15:57:04.510Z,4.55
2022-08-14T15:59:54.079Z,4.53
2022-08-14T16:02:30.176Z,4.62
2022-08-14T16:05:00.234Z,4.78
2022-08-14T16:07:31.126Z,4.33
2022-08-14T16:10:27.590Z,4.30
2022-08-14T16:12:45.954Z,4.15
2022-08-14T16:15:06.214Z,5.10
2022-08-14T16:17:44.097Z,4.47
2022-08-14T16:20:42.595Z,4.22
2022-08-14T16:22:58.520Z,4.40
2022-08-14T16:25:35.393Z,4.50
2022-08-14T16:27:55.266Z,4.58
2022-08-14T16:30:27.980Z,4.50
2022-08-14T16:33:01.970Z,4.30
2022-08-14T16:35:42.448Z,4.10
2022-08-14T16:38:19.058Z,4.00
2022-08-14T16:40:43.727Z,4.08
2022-08-14T16:43:15.322Z,4.53
2022-08-14T16:45:53.794Z,4.45
2022-08-14T16:48:55.141Z,4.15
2022-08-14T16:50:56.607Z,4.90
2022-08-14T16:53:27.100Z,5.10
2022-08-14T16:56:23.424Z,4.78
2022-08-14T16:58:53.917Z,4.25
2022-08-14T17:01:27.350Z,4.58
2022-08-14T17:04:08.622Z,5.08
2022-08-14T17:06:47.858Z,4.85
2022-08-14T17:09:43.596Z,4.80
2022-08-14T17:12:33.837Z,5.10
2022-08-14T17:14:54.871Z,4.97
2022-08-14T17:17:43.068Z,5.58
2022-08-14T17:20:53.946Z,5.30
2022-08-14T17:22:56.620Z,5.62
2022-08-14T17:25:34.479Z,7.53
2022-08-14T17:28:51.065Z,8.30
2022-08-14T17:30:58.905Z,7.87
2022-08-14T17:33:44.628Z,6.00
2022-08-14T17:36:24.253Z,15.25
2022-08-14T17:42:01.813Z,6.72
2022-08-14T17:44:33.422Z,6.05
2022-08-14T17:47:05.111Z,6.50
2022-08-14T17:49:40.578Z,6.42
2022-08-14T17:52:18.168Z,6.47
2022-08-14T17:55:00.710Z,6.40
2022-08-14T17:57:35.189Z,6.50
2022-08-14T18:00:05.296Z,6.22
2022-08-14T18:02:40.009Z,5.90
2022-08-14T18:05:15.337Z,6.12
2022-08-14T18:07:59.412Z,6.10
2022-08-14T18:10:55.005Z,6.70
2022-08-14T18:12:57.581Z,6.67
2022-08-14T18:15:37.261Z,6.75
2022-08-14T18:18:12.311Z,6.75
2022-08-14T18:21:41.815Z,5.85
2022-08-14T18:23:21.891Z,6.00
2022-08-14T18:25:54.597Z,6.45
2022-08-14T18:28:48.141Z,6.50
2022-08-14T18:31:18.495Z,6.37
2022-08-14T18:34:04.182Z,6.62
2022-08-14T18:36:52.746Z,6.85
2022-08-14T18:40:00.941Z,6.50
2022-08-14T18:42:24.447Z,6.78
2022-08-14T18:45:01.417Z,6.72
2022-08-14T18:48:03.561Z,6.40
2022-08-14T18:50:26.154Z,6.33
2022-08-14T18:52:50.365Z,6.80
2022-08-14T18:55:26.879Z,6.33
2022-08-14T18:58:07.716Z,6.80
2022-08-14T19:00:43.302Z,6.97
2022-08-14T19:03:38.394Z,7.67
2022-08-14T19:06:16.691Z,6.87
2022-08-14T19:08:52.998Z,7.50
2022-08-14T19:11:39.092Z,6.92
2022-08-14T19:14:14.044Z,7.58
2022-08-14T19:16:48.366Z,6.65
2022-08-14T19:19:19.158Z,6.58
2022-08-14T19:21:59.056Z,6.92
2022-08-14T19:24:44.267Z,7.10
2022-08-14T19:27:23.984Z,6.97
2022-08-14T19:30:19.792Z,6.80
2022-08-14T19:32:55.687Z,7.15
2022-08-14T19:35:50.216Z,7.25
2022-08-14T19:38:07.910Z,7.15
2022-08-14T19:40:42.719Z,7.55
2022-08-14T19:43:16.427Z,6.95
2022-08-14T19:45:52.603Z,7.33
2022-08-14T19:48:26.594Z,7.33
2022-08-14T19:51:02.359Z,7.28
2022-08-14T19:53:33.517Z,7.12
2022-08-14T19:56:05.767Z,7.62
2022-08-14T19:58:55.511Z,7.53
2022-08-14T20:01:17.441Z,7.65
2022-08-14T20:03:59.659Z,7.90
2022-08-14T20:06:28.261Z,7.40
2022-08-14T20:10:59.378Z,7.12
2022-08-14T20:12:02.063Z,7.83
2022-08-14T20:14:29.465Z,7.80
2022-08-14T20:17:05.516Z,7.53
2022-08-14T20:19:37.564Z,7.92
2022-08-14T20:22:36.749Z,8.08
2022-08-14T20:24:47.428Z,8.13
2022-08-14T20:27:34.884Z,7.90
2022-08-14T20:30:33.888Z,8.25
2022-08-14T20:33:02.572Z,8.10
2022-08-14T20:35:38.995Z,7.75
2022-08-14T20:38:31.159Z,7.58
2022-08-14T20:41:01.362Z,8.35
2022-08-14T20:43:53.927Z,8.25
2022-08-14T20:46:31.696Z,7.90
2022-08-14T20:49:12.021Z,7.83
2022-08-14T20:51:54.511Z,7.60
2022-08-14T20:54:34.184Z,8.13
2022-08-14T20:57:08.323Z,8.00
2022-08-14T20:59:44.569Z,8.08
2022-08-14T21:02:29.636Z,8.43
2022-08-14T21:05:02.894Z,8.35
2022-08-14T21:07:37.344Z,8.48
2022-08-14T21:10:35.426Z,7.83
2022-08-14T21:13:25.432Z,8.78
2022-08-14T21:15:23.528Z,7.72
2022-08-14T21:18:03.392Z,8.95
2022-08-14T21:20:36.998Z,7.90
2022-08-14T21:23:08.691Z,8.10
2022-08-14T21:25:40.112Z,8.10
2022-08-14T21:28:29.586Z,8.15
2022-08-14T21:30:52.521Z,8.63
2022-08-14T21:33:21.623Z,8.58
2022-08-14T21:35:55.487Z,8.48
2022-08-14T21:38:34.159Z,8.35
2022-08-14T21:40:59.712Z,8.80
2022-08-14T21:43:32.451Z,8.75
2022-08-14T21:46:03.372Z,8.55
2022-08-14T21:48:35.768Z,8.65
2022-08-14T21:51:53.631Z,9.45
2022-08-14T21:53:58.852Z,8.73
2022-08-14T21:56:16.799Z,9.10
2022-08-14T21:58:54.438Z,8.75
2022-08-14T22:01:21.582Z,8.73
2022-08-14T22:03:56.795Z,8.48
2022-08-14T22:06:28.960Z,9.28
2022-08-14T22:09:01.793Z,9.00
2022-08-14T22:11:37.599Z,9.60
2022-08-14T22:14:26.092Z,8.95
2022-08-14T22:17:03.459Z,9.80
2022-08-14T22:19:23.142Z,9.58
2022-08-14T22:21:55.740Z,9.70
2022-08-14T22:24:38.632Z,9.58
2022-08-14T22:27:01.390Z,9.35
2022-08-14T22:29:33.283Z,9.58
2022-08-14T22:32:08.262Z,9.80
2022-08-14T22:34:40.963Z,9.85
2022-08-14T22:37:14.551Z,9.93
2022-08-14T22:40:43.510Z,9.90
2022-08-14T22:42:36.638Z,9.80
2022-08-14T22:45:07.347Z,9.90
2022-08-14T22:47:40.859Z,10.23
2022-08-14T22:50:30.834Z,10.15
2022-08-14T22:52:49.314Z,10.25
2022-08-14T22:55:19.155Z,10.32
2022-08-14T22:57:50.922Z,10.55
2022-08-14T23:00:30.184Z,9.95
2022-08-14T23:03:01.507Z,11.00
2022-08-14T23:05:39.724Z,10.58
2022-08-14T23:08:59.171Z,10.98
2022-08-14T23:10:38.972Z,10.82
2022-08-14T23:13:11.295Z,10.23
2022-08-14T23:15:43.011Z,11.05
2022-08-14T23:18:14.827Z,10.80
2022-08-14T23:20:47.657Z,11.45
2022-08-14T23:23:22.315Z,11.85
2022-08-14T23:25:59.599Z,11.48
2022-08-14T23:28:33.977Z,10.75
2022-08-14T23:31:00.468Z,11.08
2022-08-14T23:33:33.442Z,11.03
2022-08-14T23:36:31.475Z,11.43
2022-08-14T23:38:38.702Z,11.15
2022-08-14T23:41:16.889Z,11.28
2022-08-14T23:43:52.397Z,11.45
2022-08-14T23:46:34.737Z,10.65
2022-08-14T23:48:57.829Z,11.00
2022-08-14T23:51:36.540Z,10.93
2022-08-14T23:54:48.207Z,11.15
2022-08-14T23:56:41.298Z,10.82
2022-08-14T23:59:15.569Z,11.60
